createdAt,value
2018-03-22T00:00:56.624Z,46.00
2018-03-22T00:03:24.083Z,45.80
2018-03-22T00:05:51.540Z,45.70
2018-03-22T00:08:19.010Z,46.00
2018-03-22T00:10:46.444Z,46.00
2018-03-22T00:13:13.904Z,46.20
2018-03-22T00:15:41.354Z,46.40
2018-03-22T00:18:08.824Z,46.40
2018-03-22T00:20:36.264Z,46.50
2018-03-22T00:23:03.732Z,46.60
2018-03-22T00:25:31.200Z,46.80
2018-03-22T00:27:59.516Z,47.20
2018-03-22T00:30:28.190Z,47.20
2018-03-22T00:32:55.619Z,47.20
2018-03-22T00:35:23.073Z,47.30
2018-03-22T00:37:51.128Z,47.30
2018-03-22T00:40:18.592Z,47.30
2018-03-22T00:42:46.044Z,48.00
2018-03-22T00:45:13.467Z,47.40
2018-03-22T00:47:41.052Z,47.70
2018-03-22T00:50:08.528Z,47.80
2018-03-22T00:52:36.084Z,48.00
2018-03-22T00:55:03.666Z,48.10
2018-03-22T00:57:31.089Z,48.40
2018-03-22T00:59:58.560Z,48.50
2018-03-22T01:02:26.121Z,48.30
2018-03-22T01:04:53.551Z,48.40
2018-03-22T01:07:21.010Z,48.50
2018-03-22T01:09:48.441Z,48.70
2018-03-22T01:12:16.713Z,48.80
2018-03-22T01:14:45.182Z,48.70
2018-03-22T01:17:12.708Z,48.60
2018-03-22T01:19:41.334Z,48.60
2018-03-22T01:22:09.663Z,49.40
2018-03-22T01:24:37.942Z,49.30
2018-03-22T01:27:05.475Z,49.00
2018-03-22T01:29:32.908Z,49.10
2018-03-22T01:32:01.128Z,48.80
2018-03-22T01:34:28.584Z,48.80
2018-03-22T01:36:56.020Z,49.20
2018-03-22T01:39:23.518Z,49.20
2018-03-22T01:41:51.383Z,49.30
2018-03-22T01:44:18.813Z,49.60
2018-03-22T01:46:46.256Z,49.50
2018-03-22T01:49:13.697Z,49.40
2018-03-22T01:51:41.123Z,49.70
2018-03-22T01:54:08.560Z,49.50
2018-03-22T01:56:36.729Z,49.60
2018-03-22T01:59:04.191Z,49.70
2018-03-22T02:01:31.619Z,49.60
2018-03-22T02:03:59.105Z,50.00
2018-03-22T02:06:26.656Z,49.60
2018-03-22T02:08:54.112Z,49.70
2018-03-22T02:11:21.552Z,50.00
2018-03-22T02:13:48.999Z,50.20
2018-03-22T02:16:16.454Z,50.00
2018-03-22T02:18:43.883Z,49.90
2018-03-22T02:21:12.100Z,50.00
2018-03-22T02:23:39.544Z,50.00
2018-03-22T02:26:06.987Z,50.00
2018-03-22T02:28:34.500Z,50.00
2018-03-22T02:31:01.940Z,50.10
2018-03-22T02:33:29.409Z,50.10
2018-03-22T02:35:56.835Z,50.20
2018-03-22T02:38:24.320Z,50.30
2018-03-22T02:40:51.884Z,50.40
2018-03-22T02:43:20.222Z,50.60
2018-03-22T02:45:47.710Z,50.50
2018-03-22T02:48:15.172Z,50.40
2018-03-22T02:50:42.648Z,50.40
2018-03-22T02:53:10.863Z,50.20
2018-03-22T02:55:38.304Z,49.80
2018-03-22T02:58:06.513Z,50.40
2018-03-22T03:00:33.967Z,50.40
2018-03-22T03:03:01.395Z,50.10
2018-03-22T03:05:28.902Z,50.20
2018-03-22T03:07:56.851Z,50.30
2018-03-22T03:10:25.011Z,50.40
2018-03-22T03:12:52.948Z,50.80
2018-03-22T03:15:21.150Z,50.70
2018-03-22T03:17:48.836Z,50.60
2018-03-22T03:20:16.328Z,50.90
2018-03-22T03:22:43.752Z,51.20
2018-03-22T03:25:11.214Z,51.30
2018-03-22T03:27:38.674Z,51.40
2018-03-22T03:30:06.128Z,51.30
2018-03-22T03:32:33.559Z,51.20
2018-03-22T03:35:01.007Z,51.30
2018-03-22T03:37:28.436Z,51.30
2018-03-22T03:39:56.672Z,51.60
2018-03-22T03:42:24.128Z,51.60
2018-03-22T03:44:51.576Z,51.10
2018-03-22T03:47:19.019Z,51.10
2018-03-22T03:49:46.459Z,51.40
2018-03-22T03:52:13.958Z,51.40
2018-03-22T03:54:41.399Z,51.40
2018-03-22T03:57:09.311Z,51.20
2018-03-22T03:59:36.838Z,51.40
2018-03-22T04:02:04.363Z,51.60
2018-03-22T04:04:32.208Z,51.40
2018-03-22T04:07:00.453Z,51.60
2018-03-22T04:09:27.960Z,51.60
2018-03-22T04:11:56.218Z,51.60
2018-03-22T04:14:23.684Z,51.60
2018-03-22T04:16:51.900Z,51.70
2018-03-22T04:19:19.357Z,51.70
2018-03-22T04:21:46.805Z,51.70
2018-03-22T04:24:14.252Z,51.90
2018-03-22T04:26:41.688Z,51.80
2018-03-22T04:29:09.199Z,51.60
2018-03-22T04:31:36.641Z,52.70
2018-03-22T04:34:04.067Z,51.80
2018-03-22T04:36:31.510Z,51.90
2018-03-22T04:38:59.735Z,52.00
2018-03-22T04:41:27.179Z,52.00
2018-03-22T04:43:54.608Z,52.20
2018-03-22T04:46:22.127Z,52.40
2018-03-22T04:48:49.568Z,52.40
2018-03-22T04:51:17.024Z,52.60
2018-03-22T04:53:44.460Z,52.40
2018-03-22T04:56:11.904Z,52.60
2018-03-22T04:58:39.342Z,52.20
2018-03-22T05:01:06.773Z,52.30
2018-03-22T05:03:34.225Z,52.50
2018-03-22T05:06:01.670Z,52.50
2018-03-22T05:08:29.154Z,52.50
2018-03-22T05:10:56.614Z,52.80
2018-03-22T05:13:24.045Z,52.60
2018-03-22T05:15:52.241Z,52.60
2018-03-22T05:18:20.478Z,52.90
2018-03-22T05:20:47.910Z,52.80
2018-03-22T05:23:15.388Z,52.90
2018-03-22T05:25:42.861Z,52.80
2018-03-22T05:28:10.408Z,52.70
2018-03-22T05:30:37.855Z,53.00
2018-03-22T05:33:05.320Z,53.00
2018-03-22T05:35:32.776Z,53.30
2018-03-22T05:38:00.212Z,53.10
2018-03-22T05:40:27.704Z,52.80
2018-03-22T05:42:55.144Z,52.60
2018-03-22T05:45:22.577Z,52.80
2018-03-22T05:47:50.058Z,53.40
2018-03-22T05:50:17.504Z,53.10
2018-03-22T05:52:45.794Z,53.10
2018-03-22T05:55:13.241Z,53.20
2018-03-22T05:57:42.345Z,53.20
2018-03-22T06:00:09.809Z,53.20
2018-03-22T06:02:37.240Z,53.00
2018-03-22T06:05:04.725Z,53.40
2018-03-22T06:07:32.179Z,53.10
2018-03-22T06:09:59.744Z,52.60
2018-03-22T06:12:27.177Z,52.50
2018-03-22T06:14:54.625Z,52.00
2018-03-22T06:17:22.063Z,51.90
2018-03-22T06:19:49.488Z,51.30
2018-03-22T06:22:17.732Z,51.00
2018-03-22T06:24:45.218Z,51.00
2018-03-22T06:27:12.658Z,51.00
2018-03-22T06:29:40.115Z,50.90
2018-03-22T06:32:07.580Z,51.00
2018-03-22T06:34:35.116Z,50.70
2018-03-22T06:37:02.548Z,50.80
2018-03-22T06:39:30.771Z,50.80
2018-03-22T06:41:59.164Z,50.70
2018-03-22T06:44:26.692Z,50.90
2018-03-22T06:46:54.160Z,50.90
2018-03-22T06:49:21.709Z,51.00
2018-03-22T06:51:50.752Z,51.00
2018-03-22T06:54:18.944Z,51.20
2018-03-22T06:56:47.477Z,51.20
2018-03-22T06:59:15.116Z,51.10
2018-03-22T07:01:42.567Z,51.00
2018-03-22T07:04:10.047Z,51.10
2018-03-22T07:06:37.479Z,51.00
2018-03-22T07:09:05.972Z,51.10
2018-03-22T07:11:33.531Z,51.10
2018-03-22T07:14:00.983Z,51.40
2018-03-22T07:16:28.539Z,51.30
2018-03-22T07:18:55.973Z,51.40
2018-03-22T07:21:23.456Z,51.30
2018-03-22T07:23:50.932Z,51.20
2018-03-22T07:26:18.360Z,51.20
2018-03-22T07:28:45.811Z,51.20
2018-03-22T07:31:13.250Z,51.30
2018-03-22T07:33:41.229Z,50.90
2018-03-22T07:36:08.708Z,50.90
2018-03-22T07:38:36.172Z,51.10
2018-03-22T07:41:03.603Z,51.40
2018-03-22T07:43:36.704Z,51.40
2018-03-22T07:46:04.152Z,51.40
2018-03-22T07:48:31.603Z,51.40
2018-03-22T07:50:59.045Z,51.40
2018-03-22T07:53:26.483Z,51.10
2018-03-22T07:55:54.717Z,51.40
2018-03-22T07:58:22.167Z,51.40
2018-03-22T08:00:49.626Z,51.10
2018-03-22T08:03:18.001Z,51.10
2018-03-22T08:05:45.468Z,51.10
2018-03-22T08:08:12.900Z,51.10
2018-03-22T08:10:40.484Z,50.90
2018-03-22T08:13:07.908Z,50.70
2018-03-22T08:15:35.352Z,50.40
2018-03-22T08:18:02.798Z,50.60
2018-03-22T08:20:31.017Z,51.00
2018-03-22T08:22:58.489Z,51.00
2018-03-22T08:25:25.965Z,51.30
2018-03-22T08:27:53.614Z,52.10
2018-03-22T08:30:21.047Z,52.20
2018-03-22T08:32:48.596Z,53.00
2018-03-22T08:35:16.071Z,53.60
2018-03-22T08:37:43.504Z,54.40
2018-03-22T08:40:10.947Z,55.00
2018-03-22T08:42:38.453Z,55.30
2018-03-22T08:45:05.908Z,55.60
2018-03-22T08:47:33.355Z,56.10
2018-03-22T08:50:00.811Z,56.20
2018-03-22T08:52:28.247Z,56.80
2018-03-22T08:54:55.687Z,56.70
2018-03-22T08:57:23.135Z,57.30
2018-03-22T08:59:51.355Z,57.80
2018-03-22T09:02:18.815Z,57.80
2018-03-22T09:04:46.272Z,57.90
2018-03-22T09:07:13.713Z,58.60
2018-03-22T09:09:41.174Z,58.90
2018-03-22T09:12:08.607Z,59.60
2018-03-22T09:14:36.055Z,59.50
2018-03-22T09:17:04.272Z,60.70
2018-03-22T09:19:31.709Z,60.70
2018-03-22T09:21:59.140Z,61.10
2018-03-22T09:24:26.648Z,61.00
2018-03-22T09:26:59.700Z,61.40
2018-03-22T09:29:27.144Z,61.60
2018-03-22T09:31:55.359Z,61.80
2018-03-22T09:34:22.919Z,61.80
2018-03-22T09:36:50.353Z,62.20
2018-03-22T09:39:17.840Z,63.00
2018-03-22T09:41:45.279Z,63.50
2018-03-22T09:44:12.762Z,63.70
2018-03-22T09:46:40.217Z,63.90
2018-03-22T09:49:07.664Z,64.50
2018-03-22T09:51:35.110Z,64.60
2018-03-22T09:54:02.535Z,64.60
2018-03-22T09:56:29.964Z,64.70
2018-03-22T09:58:57.399Z,64.70
2018-03-22T10:01:24.843Z,65.10
2018-03-22T10:03:52.285Z,64.60
2018-03-22T10:06:19.756Z,65.00
2018-03-22T10:08:47.217Z,64.80
2018-03-22T10:11:14.671Z,64.80
2018-03-22T10:13:42.143Z,65.40
2018-03-22T10:16:10.004Z,65.30
2018-03-22T10:18:37.460Z,65.60
2018-03-22T10:21:04.895Z,65.80
2018-03-22T10:23:32.365Z,66.60
2018-03-22T10:25:59.911Z,66.30
2018-03-22T10:28:27.658Z,66.30
2018-03-22T10:30:55.088Z,66.40
2018-03-22T10:33:23.323Z,66.50
2018-03-22T10:35:50.785Z,66.50
2018-03-22T10:38:18.220Z,66.70
2018-03-22T10:40:45.652Z,67.20
2018-03-22T10:43:13.147Z,67.50
2018-03-22T10:45:40.611Z,67.20
2018-03-22T10:48:08.063Z,66.90
2018-03-22T10:50:35.499Z,67.10
2018-03-22T10:53:02.936Z,67.00
2018-03-22T10:55:30.435Z,67.40
2018-03-22T10:57:57.867Z,67.40
2018-03-22T11:00:30.948Z,67.00
2018-03-22T11:03:13.256Z,67.50
2018-03-22T11:05:40.717Z,67.40
2018-03-22T11:08:08.195Z,67.50
2018-03-22T11:10:35.639Z,67.50
2018-03-22T11:13:03.075Z,67.40
2018-03-22T11:15:30.524Z,67.50
2018-03-22T11:17:57.957Z,67.70
2018-03-22T11:20:25.495Z,67.80
2018-03-22T11:22:53.046Z,68.00
2018-03-22T11:25:20.485Z,68.10
2018-03-22T11:27:47.976Z,67.80
2018-03-22T11:30:15.409Z,67.50
2018-03-22T11:32:42.867Z,67.50
2018-03-22T11:35:10.324Z,67.50
2018-03-22T11:37:37.777Z,67.40
2018-03-22T11:40:05.263Z,67.50
2018-03-22T11:42:32.837Z,67.60
2018-03-22T11:45:00.258Z,67.40
2018-03-22T11:47:28.256Z,67.40
2018-03-22T11:49:55.793Z,67.70
2018-03-22T11:52:23.239Z,67.40
2018-03-22T11:54:50.812Z,67.70
2018-03-22T11:57:18.286Z,67.60
2018-03-22T11:59:45.721Z,67.30
2018-03-22T12:02:13.172Z,67.50
2018-03-22T12:04:40.640Z,68.00
2018-03-22T12:07:08.079Z,67.70
2018-03-22T12:09:35.545Z,67.80
2018-03-22T12:12:02.995Z,67.80
2018-03-22T12:14:30.441Z,67.80
2018-03-22T12:16:57.923Z,68.10
2018-03-22T12:19:25.476Z,67.90
2018-03-22T12:21:53.286Z,67.60
2018-03-22T12:24:21.516Z,68.10
2018-03-22T12:26:48.957Z,68.00
2018-03-22T12:29:16.392Z,68.00
2018-03-22T12:31:43.838Z,68.50
2018-03-22T12:34:12.056Z,68.10
2018-03-22T12:36:39.615Z,68.10
2018-03-22T12:39:07.050Z,67.70
2018-03-22T12:41:34.532Z,67.80
2018-03-22T12:44:01.980Z,67.70
2018-03-22T12:46:29.448Z,67.80
2018-03-22T12:48:56.904Z,67.60
2018-03-22T12:51:24.342Z,67.90
2018-03-22T12:53:51.780Z,68.10
2018-03-22T12:56:19.313Z,67.90
2018-03-22T12:58:46.835Z,68.20
2018-03-22T13:01:14.272Z,68.30
2018-03-22T13:03:42.189Z,68.00
2018-03-22T13:06:09.711Z,68.10
2018-03-22T13:08:37.148Z,68.00
2018-03-22T13:11:04.628Z,68.60
2018-03-22T13:13:32.092Z,68.20
2018-03-22T13:15:59.519Z,68.40
2018-03-22T13:18:27.000Z,68.50
2018-03-22T13:20:54.456Z,68.60
2018-03-22T13:23:21.917Z,68.60
2018-03-22T13:25:49.373Z,68.70
2018-03-22T13:28:16.824Z,68.60
2018-03-22T13:30:44.295Z,69.00
2018-03-22T13:33:11.763Z,68.80
2018-03-22T13:35:39.299Z,68.60
2018-03-22T13:38:06.736Z,68.90
2018-03-22T13:40:34.193Z,69.40
2018-03-22T13:43:01.628Z,68.90
2018-03-22T13:45:29.067Z,69.20
2018-03-22T13:47:57.289Z,69.10
2018-03-22T13:50:24.759Z,69.10
2018-03-22T13:52:52.224Z,69.10
2018-03-22T13:55:19.660Z,69.10
2018-03-22T13:57:47.099Z,69.50
2018-03-22T14:00:14.583Z,69.70
2018-03-22T14:02:42.002Z,69.70
2018-03-22T14:05:09.431Z,69.20
2018-03-22T14:07:37.671Z,69.70
2018-03-22T14:10:05.132Z,69.50
2018-03-22T14:12:33.859Z,69.70
2018-03-22T14:15:01.873Z,69.60
2018-03-22T14:17:29.344Z,69.70
2018-03-22T14:19:57.928Z,69.50
2018-03-22T14:22:26.113Z,68.80
2018-03-22T14:24:53.532Z,69.40
2018-03-22T14:27:22.529Z,69.40
2018-03-22T14:29:50.065Z,69.60
2018-03-22T14:32:17.460Z,69.80
2018-03-22T14:34:44.902Z,69.90
2018-03-22T14:37:12.339Z,70.10
2018-03-22T14:39:39.759Z,70.40
2018-03-22T14:42:07.295Z,70.40
2018-03-22T14:44:34.747Z,70.30
2018-03-22T14:47:02.204Z,70.50
2018-03-22T14:49:29.672Z,70.60
2018-03-22T14:51:57.124Z,70.20
2018-03-22T14:54:24.572Z,70.60
2018-03-22T14:56:52.055Z,70.50
2018-03-22T14:59:19.503Z,70.50
2018-03-22T15:01:46.969Z,70.60
2018-03-22T15:04:14.415Z,70.90
2018-03-22T15:06:43.723Z,70.30
2018-03-22T15:09:11.203Z,70.70
2018-03-22T15:11:39.445Z,70.60
2018-03-22T15:14:06.912Z,70.50
2018-03-22T15:16:34.489Z,70.80
2018-03-22T15:19:01.887Z,70.80
2018-03-22T15:21:29.775Z,70.80
2018-03-22T15:23:57.221Z,70.90
2018-03-22T15:26:24.707Z,70.90
2018-03-22T15:28:52.177Z,71.00
2018-03-22T15:31:19.596Z,71.30
2018-03-22T15:33:47.176Z,71.30
2018-03-22T15:36:14.732Z,71.30
2018-03-22T15:38:42.180Z,71.20
2018-03-22T15:41:09.640Z,71.00
2018-03-22T15:43:37.096Z,71.20
2018-03-22T15:46:04.527Z,71.00
2018-03-22T15:48:32.016Z,70.90
2018-03-22T15:50:59.444Z,70.90
2018-03-22T15:53:26.888Z,71.20
2018-03-22T15:55:54.319Z,71.30
2018-03-22T15:58:22.670Z,71.00
2018-03-22T16:00:50.116Z,71.00
2018-03-22T16:03:17.547Z,71.30
2018-03-22T16:05:44.997Z,71.10
2018-03-22T16:08:12.480Z,71.20
2018-03-22T16:10:39.944Z,71.20
2018-03-22T16:13:07.384Z,71.70
2018-03-22T16:15:34.860Z,71.20
2018-03-22T16:18:02.339Z,71.10
2018-03-22T16:20:29.896Z,71.40
2018-03-22T16:22:58.172Z,71.40
2018-03-22T16:25:25.632Z,71.20
2018-03-22T16:27:53.185Z,71.10
2018-03-22T16:30:20.634Z,71.00
2018-03-22T16:32:48.092Z,71.20
2018-03-22T16:35:15.559Z,71.10
2018-03-22T16:37:43.020Z,71.40
2018-03-22T16:40:10.480Z,71.60
2018-03-22T16:42:38.040Z,71.50
2018-03-22T16:45:05.508Z,71.70
2018-03-22T16:47:33.735Z,71.60
2018-03-22T16:50:01.843Z,71.60
2018-03-22T16:52:29.304Z,72.00
2018-03-22T16:54:57.536Z,72.20
2018-03-22T16:57:24.983Z,71.60
2018-03-22T16:59:52.484Z,71.50
2018-03-22T17:02:19.956Z,71.40
2018-03-22T17:04:48.175Z,71.70
2018-03-22T17:07:15.659Z,71.70
2018-03-22T17:09:43.119Z,71.80
2018-03-22T17:12:10.571Z,72.00
2018-03-22T17:14:38.072Z,72.00
2018-03-22T17:17:06.286Z,73.10
2018-03-22T19:03:01.597Z,73.50
2018-03-22T19:05:29.053Z,73.20
2018-03-22T19:07:56.486Z,73.40
2018-03-22T19:10:23.908Z,73.60
2018-03-22T19:12:52.125Z,73.40
2018-03-22T19:15:19.560Z,74.00
2018-03-22T19:17:46.992Z,73.50
2018-03-22T19:20:15.199Z,73.20
2018-03-22T19:22:42.669Z,73.20
2018-03-22T19:25:10.070Z,73.60
2018-03-22T19:27:38.254Z,73.30
2018-03-22T19:30:05.681Z,73.00
2018-03-22T19:32:33.113Z,73.10
2018-03-22T19:35:00.724Z,73.40
2018-03-22T19:37:29.564Z,74.00
2018-03-22T19:39:57.032Z,73.30
2018-03-22T19:42:24.464Z,73.40
2018-03-22T19:44:52.580Z,73.00
2018-03-22T19:47:20.947Z,72.70
2018-03-22T19:49:48.407Z,72.70
2018-03-22T19:52:15.859Z,73.00
2018-03-22T19:54:43.280Z,73.00
2018-03-22T19:57:10.716Z,72.90
2018-03-22T19:59:39.032Z,72.60
2018-03-22T20:02:06.493Z,72.60
2018-03-22T20:04:33.930Z,72.90
2018-03-22T20:07:01.359Z,72.60
2018-03-22T20:09:28.808Z,72.60
2018-03-22T20:11:57.012Z,72.70
2018-03-22T20:14:24.451Z,72.70
2018-03-22T20:16:52.669Z,72.60
2018-03-22T20:19:20.128Z,72.60
2018-03-22T20:21:47.674Z,72.50
2018-03-22T20:24:15.123Z,72.50
2018-03-22T20:26:42.552Z,73.30
2018-03-22T20:29:10.773Z,73.00
2018-03-22T20:31:38.212Z,73.00
2018-03-22T20:34:05.656Z,73.10
2018-03-22T20:36:33.128Z,72.80
2018-03-22T20:39:00.584Z,72.60
2018-03-22T20:41:28.138Z,72.70
2018-03-22T20:43:55.568Z,72.90
2018-03-22T20:46:23.776Z,73.20
2018-03-22T20:48:51.249Z,73.20
2018-03-22T20:51:18.720Z,73.20
2018-03-22T20:53:46.165Z,74.30
2018-03-22T20:56:18.172Z,72.90
2018-03-22T20:58:46.409Z,73.00
2018-03-22T21:01:14.168Z,72.90
2018-03-22T21:03:41.603Z,73.10
2018-03-22T21:06:09.043Z,73.00
2018-03-22T21:08:36.515Z,73.00
2018-03-22T21:11:03.995Z,72.60
2018-03-22T21:13:31.445Z,73.00
2018-03-22T21:16:02.328Z,73.40
2018-03-22T21:18:29.868Z,73.40
2018-03-22T21:20:57.341Z,73.10
2018-03-22T21:23:25.586Z,73.20
2018-03-22T21:25:54.448Z,73.20
2018-03-22T21:28:21.947Z,73.20
2018-03-22T21:30:49.376Z,73.40
2018-03-22T21:33:16.971Z,73.50
2018-03-22T21:35:44.424Z,73.50
2018-03-22T21:38:11.868Z,73.50
2018-03-22T21:40:39.292Z,73.30
2018-03-22T21:43:08.459Z,73.30
2018-03-22T21:45:36.687Z,73.10
2018-03-22T21:48:04.128Z,73.00
2018-03-22T21:50:44.497Z,72.70
2018-03-22T21:53:11.960Z,73.20
2018-03-22T21:55:39.401Z,73.10
2018-03-22T21:58:06.885Z,73.00
2018-03-22T22:00:34.336Z,72.80
2018-03-22T22:03:01.788Z,72.80
2018-03-22T22:05:29.326Z,72.80
2018-03-22T22:07:56.764Z,73.30
2018-03-22T22:10:24.946Z,73.10
2018-03-22T22:12:52.444Z,73.20
2018-03-22T22:15:20.894Z,73.20
2018-03-22T22:17:48.328Z,72.90
2018-03-22T22:20:16.614Z,73.10
2018-03-22T22:22:44.186Z,73.10
2018-03-22T22:25:11.682Z,73.50
2018-03-22T22:27:40.006Z,73.30
2018-03-22T22:30:08.264Z,73.30
2018-03-22T22:32:36.527Z,73.00
2018-03-22T22:35:04.000Z,73.00
2018-03-22T22:37:31.451Z,73.30
2018-03-22T22:39:59.654Z,73.20
2018-03-22T22:42:27.091Z,73.20
2018-03-22T22:44:55.319Z,73.10
2018-03-22T22:47:22.774Z,73.10
2018-03-22T22:49:50.203Z,73.20
2018-03-22T22:52:17.664Z,72.80
2018-03-22T22:54:45.223Z,73.00
2018-03-22T22:57:12.708Z,73.10
2018-03-22T22:59:40.160Z,73.20
2018-03-22T23:02:07.593Z,73.10
2018-03-22T23:04:35.046Z,73.10
2018-03-22T23:07:02.529Z,73.30
2018-03-22T23:09:29.971Z,72.90
2018-03-22T23:11:57.407Z,73.10
2018-03-22T23:14:24.901Z,73.00
2018-03-22T23:16:52.353Z,73.30
2018-03-22T23:19:19.783Z,73.30
2018-03-22T23:21:47.228Z,73.40
2018-03-22T23:24:14.666Z,73.30
2018-03-22T23:26:42.916Z,73.30
2018-03-22T23:29:10.467Z,73.30
2018-03-22T23:31:37.903Z,73.60
2018-03-22T23:34:05.371Z,73.60
2018-03-22T23:36:32.820Z,73.30
2018-03-22T23:39:00.285Z,73.30
2018-03-22T23:41:27.724Z,73.40
2018-03-22T23:43:55.161Z,73.40
2018-03-22T23:46:23.366Z,74.00
2018-03-22T23:48:50.848Z,73.30
2018-03-22T23:51:18.303Z,73.00
2018-03-22T23:53:45.741Z,72.80
2018-03-22T23:56:13.181Z,73.40
2018-03-22T23:58:40.638Z,73.10
